| time (UTC) | temp F | wind direction | speed MPH | gust MPH | rain 1hr in | rain 24hr in | rain mn in | humidity % | barometer mb |
| 20260509033909 | 55 | 321 | 7.0 | 8.0 | 0.00 | 0.00 | 0.00 | 82 | 1028.4 |
| 20260509033015 | 56 | 329 | 6.0 | 8.0 | 0.00 | 0.00 | 0.00 | 78 | 1028.4 |
| 20260509032109 | 56 | 332 | 5.0 | 8.0 | 0.00 | 0.00 | 0.00 | 79 | 1028.1 |
| 20260509031209 | 57 | 324 | 7.0 | 9.0 | 0.00 | 0.00 | 0.00 | 78 | 1028.3 |
| 20260509030309 | 57 | 327 | 6.0 | 9.0 | 0.00 | 0.00 | 0.00 | 75 | 1028.1 |
| 20260509025409 | 58 | 332 | 6.0 | 13.0 | 0.00 | 0.00 | 0.00 | 72 | 1027.9 |
| 20260509024509 | 59 | 323 | 8.0 | 11.0 | 0.00 | 0.00 | 0.00 | 67 | 1027.5 |
| 20260509023609 | 63 | 291 | 7.0 | 13.0 | 0.00 | 0.00 | 0.00 | 51 | 1027.5 |
| 20260509022709 | 66 | 271 | 4.0 | 15.0 | 0.00 | 0.00 | 0.00 | 39 | 1027.5 |
| 20260509021809 | 68 | 270 | 6.0 | 18.0 | 0.00 | 0.00 | 0.00 | 27 | 1027.4 |
| 20260509020909 | 67 | 286 | 7.0 | 16.0 | 0.00 | 0.00 | 0.00 | 30 | 1027.3 |
| 20260509015109 | 69 | 225 | 4.0 | 13.0 | 0.00 | 0.00 | 0.00 | 23 | 1026.9 |
| 20260509014209 | 69 | 259 | 6.0 | 10.0 | 0.00 | 0.00 | 0.00 | 25 | 1026.9 |
| 20260509013309 | 69 | 269 | 4.0 | 12.0 | 0.00 | 0.00 | 0.00 | 25 | 1026.8 |
| 20260509012409 | 70 | 267 | 4.0 | 12.0 | 0.00 | 0.00 | 0.00 | 22 | 1026.8 |
| 20260509011509 | 70 | 277 | 5.0 | 13.0 | 0.00 | 0.00 | 0.00 | 26 | 1026.9 |
| 20260509010609 | 70 | 256 | 4.0 | 10.0 | 0.00 | 0.00 | 0.00 | 25 | 1026.8 |
| 20260509004809 | 72 | 224 | 7.0 | 14.0 | 0.00 | 0.00 | 0.00 | 20 | 1026.8 |
| 20260509003909 | 73 | 226 | 3.0 | 8.0 | 0.00 | 0.00 | 0.00 | 25 | 1026.9 |
| 20260509003014 | 72 | 224 | 2.0 | 11.0 | 0.00 | 0.00 | 0.00 | 21 | 1026.9 |
| 20260509002109 | 72 | 203 | 5.0 | 12.0 | 0.00 | 0.00 | 0.00 | 18 | 1026.9 |
| 20260509000310 | 72 | 216 | 3.0 | 15.0 | 0.00 | 0.00 | 0.00 | 20 | 1027.0 |
| 20260508235409 | 72 | 250 | 8.0 | 14.0 | 0.00 | 0.00 | 0.00 | 20 | 1027.1 |
| 20260508234509 | 72 | 203 | 5.0 | 17.0 | 0.00 | 0.00 | 0.00 | 22 | 1027.1 |
| 20260508232709 | 72 | 235 | 5.0 | 12.0 | 0.00 | 0.00 | 0.00 | 21 | 1027.2 |
| 20260508231809 | 72 | 237 | 5.0 | 15.0 | 0.00 | 0.00 | 0.00 | 21 | 1027.1 |
| 20260508230909 | 71 | 215 | 8.0 | 15.0 | 0.00 | 0.00 | 0.00 | 21 | 1027.2 |
| 20260508230014 | 71 | 187 | 8.0 | 15.0 | 0.00 | 0.00 | 0.00 | 22 | 1027.3 |
| 20260508225111 | 71 | 214 | 4.0 | 14.0 | 0.00 | 0.00 | 0.00 | 24 | 1027.1 |
| 20260508223308 | 72 | 211 | 6.0 | 10.0 | 0.00 | 0.00 | 0.00 | 25 | 1027.3 |
| 20260508222408 | 71 | 212 | 7.0 | 10.0 | 0.00 | 0.00 | 0.00 | 25 | 1027.3 |
| 20260508221508 | 71 | 218 | 4.0 | 14.0 | 0.00 | 0.00 | 0.00 | 24 | 1027.4 |
| 20260508220609 | 71 | 246 | 5.0 | 11.0 | 0.00 | 0.00 | 0.00 | 24 | 1027.6 |
| 20260508215709 | 71 | 266 | 4.0 | 13.0 | 0.00 | 0.00 | 0.00 | 24 | 1027.7 |
| 20260508214808 | 71 | 263 | 4.0 | 14.0 | 0.00 | 0.00 | 0.00 | 24 | 1027.6 |
| 20260508213908 | 71 | 236 | 6.0 | 13.0 | 0.00 | 0.00 | 0.00 | 24 | 1027.5 |
| 20260508212108 | 72 | 191 | 4.0 | 9.0 | 0.00 | 0.00 | 0.00 | 22 | 1027.5 |
| 20260508211208 | 72 | 263 | 2.0 | 17.0 | 0.00 | 0.00 | 0.00 | 23 | 1027.5 |
| 20260508210308 | 72 | 214 | 8.0 | 11.0 | 0.00 | 0.00 | 0.00 | 23 | 1027.5 |
| 20260508205408 | 72 | 247 | 6.0 | 14.0 | 0.00 | 0.00 | 0.00 | 25 | 1027.4 |
| 20260508204508 | 71 | 230 | 8.0 | 16.0 | 0.00 | 0.00 | 0.00 | 24 | 1027.7 |
| 20260508203608 | 71 | 253 | 8.0 | 15.0 | 0.00 | 0.00 | 0.00 | 22 | 1027.4 |
| 20260508202708 | 71 | 224 | 7.0 | 13.0 | 0.00 | 0.00 | 0.00 | 24 | 1027.4 |
| 20260508201808 | 71 | 218 | 9.0 | 13.0 | 0.00 | 0.00 | 0.00 | 24 | 1027.4 |
| 20260508200908 | 71 | 177 | 5.0 | 16.0 | 0.00 | 0.00 | 0.00 | 27 | 1027.5 |
| 20260508200014 | 70 | 182 | 5.0 | 17.0 | 0.00 | 0.00 | 0.00 | 26 | 1027.6 |
| 20260508194208 | 70 | 183 | 4.0 | 15.0 | 0.00 | 0.00 | 0.00 | 28 | 1027.7 |
| 20260508193308 | 70 | 187 | 5.0 | 17.0 | 0.00 | 0.00 | 0.00 | 30 | 1027.6 |
| 20260508192408 | 70 | 191 | 9.0 | 15.0 | 0.00 | 0.00 | 0.00 | 31 | 1027.7 |
| 20260508191508 | 70 | 188 | 5.0 | 18.0 | 0.00 | 0.00 | 0.00 | 32 | 1027.7 |
| 20260508190608 | 69 | 196 | 11.0 | 18.0 | 0.00 | 0.00 | 0.00 | 34 | 1027.6 |
| 20260508185708 | 69 | 197 | 11.0 | 17.0 | 0.00 | 0.00 | 0.00 | 35 | 1027.8 |
| 20260508184808 | 70 | 182 | 10.0 | 14.0 | 0.00 | 0.00 | 0.00 | 36 | 1027.9 |
| 20260508183908 | 69 | 176 | 7.0 | 11.0 | 0.00 | 0.00 | 0.00 | 38 | 1028.0 |
| 20260508183014 | 67 | 178 | 7.0 | 10.0 | 0.00 | 0.00 | 0.00 | 40 | 1028.0 |
| 20260508175408 | 66 | 134 | 3.0 | 5.0 | 0.00 | 0.00 | 0.00 | 38 | 1028.5 |
| 20260508174508 | 65 | 126 | 2.0 | 4.0 | 0.00 | 0.00 | 0.00 | 40 | 1028.5 |
| 20260508173608 | 64 | 128 | 2.0 | 4.0 | 0.00 | 0.00 | 0.00 | 41 | 1028.5 |
| 20260508172708 | 64 | 177 | 2.0 | 4.0 | 0.00 | 0.00 | 0.00 | 40 | 1028.7 |
| 20260508171808 | 62 | 177 | 0.0 | 5.0 | 0.00 | 0.00 | 0.00 | 43 | 1028.9 |
| 20260508170908 | 61 | 169 | 1.0 | 4.0 | 0.00 | 0.00 | 0.00 | 45 | 1029.0 |
| 20260508170014 | 60 | 162 | 2.0 | 5.0 | 0.00 | 0.00 | 0.00 | 46 | 1029.2 |
| 20260508165108 | 60 | 181 | 1.0 | 4.0 | 0.00 | 0.00 | 0.00 | 46 | 1029.3 |
| 20260508164208 | 59 | 150 | 1.0 | 3.0 | 0.00 | 0.00 | 0.00 | 49 | 1029.2 |
| 20260508163308 | 59 | 160 | 1.0 | 4.0 | 0.00 | 0.00 | 0.00 | 50 | 1029.3 |
| 20260508160608 | 58 | 136 | 2.0 | 6.0 | 0.00 | 0.00 | 0.00 | 53 | 1029.4 |
| 20260508155708 | 58 | 98 | 2.0 | 4.0 | 0.00 | 0.00 | 0.00 | 54 | 1029.5 |
| 20260508154808 | 58 | 84 | 1.0 | 5.0 | 0.00 | 0.00 | 0.00 | 56 | 1029.4 |
| 20260508153908 | 58 | 62 | 0.0 | 6.0 | 0.00 | 0.00 | 0.00 | 55 | 1029.4 |
| 20260508153014 | 57 | 61 | 2.0 | 6.0 | 0.00 | 0.00 | 0.00 | 60 | 1029.3 |
| 20260508152108 | 56 | 87 | 2.0 | 7.0 | 0.00 | 0.00 | 0.00 | 60 | 1029.5 |
| 20260508151208 | 56 | 69 | 3.0 | 7.0 | 0.00 | 0.00 | 0.00 | 63 | 1029.6 |
| 20260508150308 | 54 | 85 | 2.0 | 4.0 | 0.00 | 0.00 | 0.00 | 67 | 1029.6 |
| 20260508144508 | 53 | 89 | 3.0 | 6.0 | 0.00 | 0.00 | 0.00 | 68 | 1029.7 |
| 20260508143607 | 53 | 97 | 1.0 | 7.0 | 0.00 | 0.00 | 0.00 | 72 | 1029.7 |
| 20260508142708 | 51 | 101 | 2.0 | 5.0 | 0.00 | 0.00 | 0.00 | 74 | 1029.7 |
| 20260508141807 | 51 | 97 | 2.0 | 5.0 | 0.00 | 0.00 | 0.00 | 76 | 1029.7 |
| 20260508140014 | 49 | 64 | 0.0 | 3.0 | 0.00 | 0.00 | 0.00 | 82 | 1029.7 |
| 20260508134207 | 45 | 344 | 1.0 | 4.0 | 0.00 | 0.00 | 0.00 | 86 | 1029.8 |
| 20260508133308 | 44 | 327 | 2.0 | 5.0 | 0.00 | 0.00 | 0.00 | 87 | 1029.7 |
| 20260508132407 | 43 | 344 | 3.0 | 6.0 | 0.00 | 0.00 | 0.00 | 86 | 1029.6 |
| 20260508131507 | 43 | 346 | 3.0 | 6.0 | 0.00 | 0.00 | 0.00 | 87 | 1029.6 |
| 20260508130607 | 43 | 339 | 4.0 | 6.0 | 0.00 | 0.00 | 0.00 | 87 | 1029.4 |
| 20260508125707 | 43 | 340 | 4.0 | 6.0 | 0.00 | 0.00 | 0.00 | 86 | 1029.4 |
| 20260508124807 | 42 | 328 | 4.0 | 6.0 | 0.00 | 0.00 | 0.00 | 86 | 1029.3 |
| 20260508123907 | 42 | 345 | 4.0 | 6.0 | 0.00 | 0.00 | 0.00 | 85 | 1029.4 |
| 20260508123014 | 43 | 353 | 3.0 | 6.0 | 0.00 | 0.00 | 0.00 | 86 | 1029.4 |
| 20260508122107 | 42 | 354 | 3.0 | 6.0 | 0.00 | 0.00 | 0.00 | 86 | 1029.3 |
| 20260508121207 | 43 | 338 | 4.0 | 6.0 | 0.00 | 0.00 | 0.00 | 85 | 1029.3 |
| 20260508120307 | 43 | 340 | 4.0 | 6.0 | 0.00 | 0.00 | 0.00 | 85 | 1029.4 |
| 20260508115407 | 43 | 337 | 4.0 | 6.0 | 0.00 | 0.00 | 0.00 | 86 | 1029.4 |
| 20260508113607 | 43 | 354 | 4.0 | 6.0 | 0.00 | 0.00 | 0.00 | 86 | 1029.2 |
| 20260508112707 | 43 | 333 | 4.0 | 6.0 | 0.00 | 0.00 | 0.00 | 86 | 1029.2 |
| 20260508111807 | 43 | 330 | 4.0 | 7.0 | 0.00 | 0.00 | 0.00 | 87 | 1029.1 |
| 20260508110907 | 43 | 323 | 4.0 | 6.0 | 0.00 | 0.00 | 0.00 | 86 | 1029.1 |
| 20260508110013 | 44 | 324 | 4.0 | 7.0 | 0.00 | 0.00 | 0.00 | 86 | 1029.1 |
| 20260508104207 | 44 | 319 | 5.0 | 7.0 | 0.00 | 0.00 | 0.00 | 85 | 1029.0 |
| 20260508103307 | 44 | 326 | 4.0 | 8.0 | 0.00 | 0.00 | 0.00 | 84 | 1029.0 |
| 20260508101507 | 46 | 331 | 5.0 | 8.0 | 0.00 | 0.00 | 0.00 | 82 | 1028.8 |
| 20260508100607 | 46 | 329 | 4.0 | 8.0 | 0.00 | 0.00 | 0.00 | 83 | 1028.7 |
| 20260508095707 | 46 | 323 | 4.0 | 8.0 | 0.00 | 0.00 | 0.00 | 84 | 1028.7 |
| 20260508093907 | 46 | 322 | 5.0 | 8.0 | 0.00 | 0.00 | 0.00 | 84 | 1028.5 |
| 20260508093007 | 46 | 338 | 5.0 | 8.0 | 0.00 | 0.00 | 0.00 | 83 | 1028.5 |
| 20260508092107 | 46 | 340 | 3.0 | 8.0 | 0.00 | 0.00 | 0.00 | 83 | 1028.6 |
| 20260508091207 | 47 | 328 | 5.0 | 8.0 | 0.00 | 0.00 | 0.00 | 83 | 1028.6 |
| 20260508090307 | 47 | 324 | 5.0 | 8.0 | 0.00 | 0.00 | 0.00 | 83 | 1028.6 |
| 20260508085407 | 48 | 325 | 4.0 | 8.0 | 0.00 | 0.00 | 0.00 | 83 | 1028.6 |
| 20260508084507 | 48 | 340 | 5.0 | 9.0 | 0.00 | 0.00 | 0.00 | 82 | 1028.5 |
| 20260508083607 | 48 | 325 | 5.0 | 7.0 | 0.00 | 0.00 | 0.00 | 81 | 1028.4 |
| 20260508082707 | 49 | 323 | 5.0 | 8.0 | 0.00 | 0.00 | 0.00 | 81 | 1028.5 |
| 20260508081807 | 49 | 325 | 4.0 | 8.0 | 0.00 | 0.00 | 0.00 | 83 | 1028.4 |
| 20260508080907 | 49 | 320 | 5.0 | 8.0 | 0.00 | 0.00 | 0.00 | 82 | 1028.3 |
| 20260508080007 | 49 | 321 | 5.0 | 8.0 | 0.00 | 0.00 | 0.00 | 82 | 1028.3 |
| 20260508075107 | 49 | 326 | 5.0 | 8.0 | 0.00 | 0.00 | 0.00 | 82 | 1028.3 |
| 20260508074208 | 49 | 324 | 5.0 | 8.0 | 0.00 | 0.00 | 0.00 | 81 | 1028.1 |
| 20260508072407 | 50 | 331 | 6.0 | 8.0 | 0.00 | 0.00 | 0.00 | 82 | 1028.0 |
| 20260508071506 | 50 | 316 | 6.0 | 8.0 | 0.00 | 0.00 | 0.00 | 82 | 1027.8 |
| 20260508070606 | 50 | 314 | 6.0 | 8.0 | 0.00 | 0.00 | 0.00 | 81 | 1027.7 |
| 20260508065706 | 51 | 323 | 6.0 | 8.0 | 0.00 | 0.00 | 0.00 | 79 | 1027.6 |
| 20260508064807 | 51 | 325 | 6.0 | 9.0 | 0.00 | 0.00 | 0.00 | 79 | 1027.4 |
| 20260508063906 | 51 | 314 | 6.0 | 9.0 | 0.00 | 0.00 | 0.00 | 79 | 1027.3 |
| 20260508063006 | 52 | 315 | 7.0 | 8.0 | 0.00 | 0.00 | 0.00 | 79 | 1027.2 |
| 20260508062106 | 52 | 319 | 5.0 | 9.0 | 0.00 | 0.00 | 0.00 | 78 | 1027.2 |
| 20260508060306 | 52 | 317 | 7.0 | 8.0 | 0.00 | 0.00 | 0.00 | 78 | 1027.1 |
| 20260508055406 | 53 | 314 | 7.0 | 9.0 | 0.00 | 0.00 | 0.00 | 77 | 1026.9 |
| 20260508054506 | 53 | 322 | 8.0 | 9.0 | 0.00 | 0.00 | 0.00 | 77 | 1026.8 |
| 20260508053607 | 53 | 314 | 6.0 | 8.0 | 0.00 | 0.00 | 0.00 | 76 | 1026.8 |
| 20260508052707 | 54 | 314 | 6.0 | 10.0 | 0.00 | 0.00 | 0.00 | 73 | 1026.5 |
| 20260508051806 | 55 | 314 | 8.0 | 10.0 | 0.00 | 0.00 | 0.00 | 73 | 1026.4 |
| 20260508050907 | 55 | 314 | 8.0 | 10.0 | 0.00 | 0.00 | 0.00 | 74 | 1026.5 |
| 20260508050006 | 55 | 322 | 8.0 | 8.0 | 0.00 | 0.00 | 0.00 | 73 | 1026.3 |
| 20260508044206 | 56 | 316 | 8.0 | 11.0 | 0.00 | 0.00 | 0.00 | 73 | 1026.3 |
| 20260508043306 | 56 | 319 | 8.0 | 11.0 | 0.00 | 0.00 | 0.00 | 73 | 1026.0 |
| 20260508041506 | 57 | 314 | 8.0 | 10.0 | 0.00 | 0.00 | 0.00 | 71 | 1025.9 |
| 20260508040606 | 57 | 314 | 7.0 | 9.0 | 0.00 | 0.00 | 0.00 | 69 | 1026.0 |
| 20260508035706 | 58 | 335 | 6.0 | 9.0 | 0.00 | 0.00 | 0.00 | 66 | 1025.9 |
| 20260508034806 | 58 | 314 | 7.0 | 11.0 | 0.00 | 0.00 | 0.00 | 68 | 1025.5 |